Time;durP1;ratioP1;P1;durP2;ratioP2;P2;SDS_P1;SDS_P2;PMS_P1;PMS_P2;Temp;Humidity;BMP_temperature;BMP_pressure;BME280_temperature;BME280_humidity;BME280_pressure;Samples;Min_cycle;Max_cycle;Signal;HPM_P1;HPM_P2
2023/11/15 00:02:12;;;;;;;1.15;0.98;;;16.70;70.40;;;;;;5112278;28;20597;-69
2023/11/15 00:04:38;;;;;;;2.13;1.23;;;16.70;70.40;;;;;;5113591;28;20260;-68
2023/11/15 00:07:04;;;;;;;1.50;0.93;;;16.60;70.40;;;;;;5113165;28;20184;-70
2023/11/15 00:09:31;;;;;;;1.33;1.02;;;16.60;70.60;;;;;;5112658;28;20220;-70
2023/11/15 00:11:57;;;;;;;1.73;1.30;;;16.60;70.60;;;;;;5113247;28;20173;-69
2023/11/15 00:14:22;;;;;;;1.88;1.20;;;16.70;70.70;;;;;;5112113;28;20225;-68
2023/11/15 00:16:48;;;;;;;1.10;1.00;;;16.60;70.60;;;;;;5113011;28;20205;-69
2023/11/15 00:19:14;;;;;;;1.85;1.08;;;16.70;70.50;;;;;;5112694;28;20173;-68
2023/11/15 00:21:40;;;;;;;1.95;1.20;;;16.70;70.50;;;;;;5112490;28;20184;-69
2023/11/15 00:24:06;;;;;;;0.90;0.82;;;16.60;70.60;;;;;;5112811;28;20180;-70
2023/11/15 00:26:32;;;;;;;2.58;0.90;;;16.60;70.40;;;;;;5113037;28;20557;-69
2023/11/15 00:28:57;;;;;;;1.50;1.10;;;16.60;70.40;;;;;;5111908;28;20661;-69
2023/11/15 00:31:24;;;;;;;5.20;1.40;;;16.60;70.50;;;;;;5112678;28;20177;-69
2023/11/15 00:33:49;;;;;;;1.85;1.20;;;16.60;70.30;;;;;;5113010;28;20181;-68
2023/11/15 00:36:19;;;;;;;2.72;1.50;;;16.60;70.40;;;;;;5111820;28;20173;-70
2023/11/15 00:38:49;;;;;;;2.38;1.35;;;16.60;70.40;;;;;;5112927;28;20306;-69
2023/11/15 00:41:15;;;;;;;2.20;1.17;;;16.60;70.40;;;;;;5112528;28;20301;-69
2023/11/15 00:43:40;;;;;;;1.75;1.23;;;16.60;70.40;;;;;;5111873;28;20244;-68
2023/11/15 00:46:06;;;;;;;1.15;1.05;;;16.60;70.30;;;;;;5111914;28;20173;-68
2023/11/15 00:48:32;;;;;;;1.20;1.10;;;16.60;70.30;;;;;;5112604;28;20560;-68
2023/11/15 00:50:57;;;;;;;2.55;1.10;;;16.60;70.20;;;;;;5111969;28;20303;-68
2023/11/15 00:53:24;;;;;;;2.53;1.25;;;16.50;70.20;;;;;;5112749;28;20183;-69
2023/11/15 00:55:50;;;;;;;1.42;1.00;;;16.50;70.20;;;;;;5112509;28;20183;-68
2023/11/15 00:58:17;;;;;;;1.75;1.20;;;16.50;70.20;;;;;;5111532;28;20169;-68
2023/11/15 01:00:47;;;;;;;1.40;1.30;;;16.50;70.20;;;;;;5112414;28;20184;-69
2023/11/15 01:03:18;;;;;;;1.38;0.93;;;16.50;70.20;;;;;;5112402;28;20183;-68
2023/11/15 01:05:44;;;;;;;1.15;1.05;;;16.50;70.20;;;;;;5111914;28;20169;-69
2023/11/15 01:08:09;;;;;;;1.30;1.20;;;16.50;70.20;;;;;;5112164;28;20180;-69
2023/11/15 01:10:35;;;;;;;1.20;1.10;;;16.50;70.20;;;;;;5111632;28;20295;-70
2023/11/15 01:13:00;;;;;;;1.13;0.95;;;16.50;70.20;;;;;;5111969;28;20169;-69
2023/11/15 01:15:26;;;;;;;2.28;1.38;;;16.50;70.20;;;;;;5112271;28;20173;-69
2023/11/15 01:17:51;;;;;;;1.95;1.20;;;16.50;70.10;;;;;;5111755;28;20173;-69
2023/11/15 01:20:17;;;;;;;1.35;1.15;;;16.50;70.20;;;;;;5112151;28;20700;-69
2023/11/15 01:22:43;;;;;;;1.55;1.17;;;16.50;70.20;;;;;;5112291;28;20741;-69
2023/11/15 01:25:08;;;;;;;1.92;1.25;;;16.50;70.20;;;;;;5111338;28;20273;-70
2023/11/15 01:27:37;;;;;;;2.83;1.13;;;16.50;70.20;;;;;;5112231;28;20222;-69
2023/11/15 01:30:03;;;;;;;1.92;1.17;;;16.50;70.20;;;;;;5112017;28;20280;-69
2023/11/15 01:32:29;;;;;;;2.40;1.30;;;16.40;70.10;;;;;;5111723;28;20538;-68
2023/11/15 01:34:55;;;;;;;1.20;1.10;;;16.50;70.20;;;;;;5112310;28;20594;-69
2023/11/15 01:37:20;;;;;;;1.13;0.80;;;16.40;70.10;;;;;;5111837;28;20722;-69
2023/11/15 01:39:47;;;;;;;3.08;1.15;;;16.50;70.20;;;;;;5111435;28;20176;-69
2023/11/15 01:42:12;;;;;;;2.10;1.35;;;16.40;70.10;;;;;;5111771;28;20530;-68
2023/11/15 01:44:38;;;;;;;1.52;1.00;;;16.40;70.10;;;;;;5112069;28;20177;-69
2023/11/15 01:47:04;;;;;;;2.67;1.15;;;16.40;70.10;;;;;;5111129;28;20177;-69
2023/11/15 01:49:30;;;;;;;1.60;0.93;;;16.40;70.10;;;;;;5093748;28;20237;-68
2023/11/15 01:51:55;;;;;;;1.58;1.25;;;16.40;70.10;;;;;;5094035;28;20726;-68
2023/11/15 01:54:23;;;;;;;1.67;1.23;;;16.40;70.10;;;;;;5092909;28;20651;-70
2023/11/15 01:56:48;;;;;;;1.15;0.90;;;16.40;70.10;;;;;;5094071;28;20646;-69
2023/11/15 01:59:14;;;;;;;2.28;1.00;;;16.40;70.10;;;;;;5115382;28;20180;-70
2023/11/15 02:01:43;;;;;;;2.17;1.10;;;16.40;70.10;;;;;;5115205;28;20173;-68
2023/11/15 02:04:08;;;;;;;1.30;1.17;;;16.40;70.10;;;;;;5115327;28;20170;-69
2023/11/15 02:06:35;;;;;;;2.17;1.10;;;16.40;70.10;;;;;;5115729;28;20184;-70
2023/11/15 02:09:01;;;;;;;1.23;0.75;;;16.40;70.10;;;;;;5096531;28;20173;-70
2023/11/15 02:11:27;;;;;;;0.70;0.70;;;16.40;70.10;;;;;;5115610;28;20177;-69
2023/11/15 02:13:53;;;;;;;1.48;1.25;;;16.40;70.10;;;;;;5115070;28;20176;-70
2023/11/15 02:16:21;;;;;;;0.80;0.80;;;16.40;70.20;;;;;;5115267;28;20181;-68
2023/11/15 02:18:47;;;;;;;2.50;1.20;;;16.30;70.10;;;;;;5115446;28;20708;-68
2023/11/15 02:21:12;;;;;;;1.30;0.80;;;16.30;70.10;;;;;;5114460;28;20193;-68
2023/11/15 02:23:45;;;;;;;1.15;0.80;;;16.40;70.20;;;;;;5115320;28;20181;-68
2023/11/15 02:26:10;;;;;;;1.98;0.90;;;16.30;70.10;;;;;;5114855;28;20256;-69
2023/11/15 02:28:36;;;;;;;1.08;0.80;;;16.30;70.10;;;;;;5114717;28;20571;-68
2023/11/15 02:31:02;;;;;;;1.85;0.95;;;16.30;70.10;;;;;;5114920;28;20235;-69
2023/11/15 02:33:27;;;;;;;0.70;0.70;;;16.30;70.10;;;;;;5115232;28;20546;-68
2023/11/15 02:35:53;;;;;;;2.45;1.00;;;16.30;70.10;;;;;;5114471;28;20184;-68
2023/11/15 02:38:19;;;;;;;1.30;1.00;;;16.30;70.10;;;;;;5114778;28;20245;-68
2023/11/15 02:40:45;;;;;;;1.27;1.00;;;16.30;70.10;;;;;;5114912;28;20627;-68
2023/11/15 02:43:11;;;;;;;1.25;1.13;;;16.30;70.10;;;;;;5114102;28;20173;-67
2023/11/15 02:45:36;;;;;;;0.93;0.77;;;16.30;70.20;;;;;;5114797;28;20176;-68
2023/11/15 02:48:02;;;;;;;1.45;0.82;;;16.30;70.10;;;;;;5114405;28;20227;-68
2023/11/15 02:50:29;;;;;;;1.10;0.85;;;16.30;70.10;;;;;;5114134;28;20589;-68
2023/11/15 02:52:55;;;;;;;1.30;1.02;;;16.30;70.20;;;;;;5114690;28;20177;-68
2023/11/15 02:55:21;;;;;;;0.98;0.80;;;16.30;70.10;;;;;;5114416;28;20263;-70
2023/11/15 02:57:46;;;;;;;1.55;1.10;;;16.30;70.10;;;;;;5114140;28;20197;-69
2023/11/15 03:00:12;;;;;;;0.75;0.75;;;16.30;70.20;;;;;;5114432;28;20662;-72
2023/11/15 03:02:38;;;;;;;1.67;1.10;;;16.30;70.10;;;;;;5114659;28;20252;-68
2023/11/15 03:05:04;;;;;;;1.52;0.88;;;16.30;70.20;;;;;;5113561;28;20173;-71
2023/11/15 03:07:29;;;;;;;0.70;0.70;;;16.30;70.20;;;;;;5114393;28;20683;-70
2023/11/15 03:09:55;;;;;;;1.23;0.90;;;16.20;70.20;;;;;;5114129;28;20208;-69
2023/11/15 03:12:20;;;;;;;1.27;0.82;;;16.30;70.20;;;;;;5113501;28;20636;-69
2023/11/15 03:14:46;;;;;;;0.60;0.60;;;16.30;70.20;;;;;;5114509;28;20551;-69
2023/11/15 03:17:18;;;;;;;1.63;0.80;;;16.20;70.10;;;;;;5113386;28;20636;-69
2023/11/15 03:19:44;;;;;;;0.70;0.70;;;16.20;70.20;;;;;;5114300;28;20188;-68
2023/11/15 03:22:12;;;;;;;0.93;0.90;;;16.30;70.30;;;;;;5113818;28;20173;-68
2023/11/15 03:24:38;;;;;;;1.25;1.05;;;16.20;70.20;;;;;;5113427;28;20232;-68
2023/11/15 03:27:04;;;;;;;2.72;1.00;;;16.20;70.20;;;;;;5113939;28;20185;-68
2023/11/15 03:29:31;;;;;;;2.35;1.38;;;16.20;70.20;;;;;;5113950;28;20208;-68
2023/11/15 03:31:56;;;;;;;0.73;0.68;;;16.20;70.20;;;;;;5113356;28;20177;-68
2023/11/15 03:34:22;;;;;;;1.33;0.80;;;16.20;70.20;;;;;;5113746;28;20172;-68
2023/11/15 03:36:47;;;;;;;0.70;0.70;;;16.20;70.20;;;;;;5113813;28;20524;-68
2023/11/15 03:39:13;;;;;;;0.85;0.85;;;16.20;70.20;;;;;;5113050;28;20635;-68
2023/11/15 03:41:38;;;;;;;1.13;0.85;;;16.20;70.20;;;;;;5114011;28;20177;-68
2023/11/15 03:44:08;;;;;;;1.20;0.90;;;16.20;70.30;;;;;;5113396;28;20627;-68
2023/11/15 03:46:33;;;;;;;1.42;0.80;;;16.20;70.30;;;;;;5113101;28;20173;-68
2023/11/15 03:48:59;;;;;;;0.75;0.75;;;16.20;70.20;;;;;;5113088;28;20634;-68
2023/11/15 03:51:24;;;;;;;1.35;1.00;;;16.20;70.20;;;;;;5113527;28;20635;-68
2023/11/15 03:53:50;;;;;;;0.60;0.60;;;16.20;70.30;;;;;;5112775;28;20169;-69
2023/11/15 03:56:15;;;;;;;1.30;0.73;;;16.20;70.20;;;;;;5113434;28;20177;-70
2023/11/15 03:58:42;;;;;;;2.88;1.08;;;16.20;70.20;;;;;;5113684;28;20165;-68
2023/11/15 04:01:08;;;;;;;1.23;0.95;;;16.20;70.20;;;;;;5112470;28;20636;-69
2023/11/15 04:03:33;;;;;;;0.80;0.75;;;16.20;70.20;;;;;;5113397;28;20185;-68
2023/11/15 04:06:05;;;;;;;1.20;0.90;;;16.20;70.20;;;;;;5112963;28;20184;-70
2023/11/15 04:08:31;;;;;;;1.02;0.93;;;16.20;70.30;;;;;;5112786;28;20177;-69
2023/11/15 04:10:57;;;;;;;3.17;1.30;;;16.20;70.30;;;;;;5113145;28;20951;-68
2023/11/15 04:13:23;;;;;;;1.30;0.93;;;16.10;70.30;;;;;;5113123;28;20632;-73
2023/11/15 04:15:49;;;;;;;1.38;0.70;;;16.20;70.30;;;;;;5112741;28;20199;-68
2023/11/15 04:18:15;;;;;;;0.70;0.70;;;16.20;70.30;;;;;;5112823;28;20543;-68
2023/11/15 04:20:40;;;;;;;2.78;1.00;;;16.10;70.30;;;;;;5111603;28;20181;-68
2023/11/15 04:23:06;;;;;;;2.08;1.20;;;16.10;70.30;;;;;;5112927;28;20193;-68
2023/11/15 04:25:32;;;;;;;1.30;0.88;;;16.10;70.30;;;;;;5113153;28;20629;-69
2023/11/15 04:27:57;;;;;;;0.80;0.77;;;16.20;70.40;;;;;;5112349;28;20687;-68
2023/11/15 04:30:23;;;;;;;1.80;1.13;;;16.10;70.30;;;;;;5112807;28;20201;-68
2023/11/15 04:32:48;;;;;;;2.00;0.80;;;16.10;70.40;;;;;;5112998;28;20177;-68
2023/11/15 04:35:14;;;;;;;1.40;0.75;;;16.10;70.30;;;;;;5111627;28;20173;-69
2023/11/15 04:37:39;;;;;;;1.48;0.70;;;16.10;70.30;;;;;;5113013;28;20177;-69
2023/11/15 04:40:10;;;;;;;1.08;0.70;;;16.10;70.40;;;;;;5112644;28;20205;-69
2023/11/15 04:42:35;;;;;;;0.88;0.88;;;16.10;70.40;;;;;;5112393;28;20517;-67
2023/11/15 04:45:02;;;;;;;1.20;0.85;;;16.10;70.40;;;;;;5112413;28;20256;-68
2023/11/15 04:47:28;;;;;;;1.15;0.77;;;16.10;70.40;;;;;;5112709;28;20174;-66
2023/11/15 04:49:53;;;;;;;2.22;1.02;;;16.10;70.40;;;;;;5093457;28;20775;-67
2023/11/15 04:52:23;;;;;;;1.30;0.90;;;16.10;70.40;;;;;;5112530;28;20279;-68
2023/11/15 04:54:48;;;;;;;0.70;0.70;;;16.10;70.40;;;;;;5112526;28;20615;-68
2023/11/15 04:57:23;;;;;;;2.88;1.30;;;16.10;70.40;;;;;;5111654;28;20169;-69
2023/11/15 04:59:51;;;;;;;1.00;0.82;;;16.10;71.10;;;;;;5112573;28;20326;-68
2023/11/15 05:02:17;;;;;;;1.58;1.02;;;16.10;70.40;;;;;;5112165;28;20195;-69
2023/11/15 05:04:46;;;;;;;1.67;1.02;;;16.10;70.40;;;;;;5112060;28;20173;-69
2023/11/15 05:07:14;;;;;;;1.17;0.95;;;16.10;70.40;;;;;;5112092;28;20181;-70
2023/11/15 05:09:40;;;;;;;0.93;0.80;;;16.10;70.40;;;;;;5094507;28;20273;-69
2023/11/15 05:12:05;;;;;;;1.67;1.00;;;16.10;70.40;;;;;;5111544;28;20635;-68
2023/11/15 05:14:36;;;;;;;2.13;1.00;;;16.10;70.40;;;;;;5112451;28;20173;-68
2023/11/15 05:17:03;;;;;;;2.33;1.00;;;16.10;70.50;;;;;;5111369;28;20200;-67
2023/11/15 05:19:29;;;;;;;1.55;1.15;;;16.10;70.50;;;;;;5112461;28;20177;-67
2023/11/15 05:21:55;;;;;;;1.02;0.90;;;16.10;70.50;;;;;;5112322;28;20680;-68
2023/11/15 05:24:20;;;;;;;1.65;0.80;;;16.00;70.40;;;;;;5111368;28;20172;-68
2023/11/15 05:26:46;;;;;;;3.03;1.33;;;16.10;70.60;;;;;;5112463;28;20177;-67
2023/11/15 05:29:12;;;;;;;2.42;1.13;;;16.00;70.40;;;;;;5111934;28;20177;-67
2023/11/15 05:31:37;;;;;;;0.90;0.82;;;16.10;70.50;;;;;;5113493;28;20177;-67
2023/11/15 05:34:03;;;;;;;1.95;1.00;;;16.00;70.40;;;;;;5116268;28;20181;-67
2023/11/15 05:36:28;;;;;;;2.03;1.20;;;16.10;70.50;;;;;;5115617;28;20559;-67
2023/11/15 05:38:54;;;;;;;2.85;1.05;;;16.00;70.40;;;;;;5115622;28;20173;-68
2023/11/15 05:41:19;;;;;;;2.08;1.30;;;16.00;70.40;;;;;;5115986;28;20173;-68
2023/11/15 05:43:45;;;;;;;1.42;1.00;;;16.00;70.40;;;;;;5116069;28;20191;-67
2023/11/15 05:46:10;;;;;;;1.35;1.00;;;16.00;70.40;;;;;;5115026;28;20699;-67
2023/11/15 05:48:36;;;;;;;1.90;1.08;;;16.00;70.40;;;;;;5116024;28;20685;-67
2023/11/15 05:51:02;;;;;;;1.95;0.88;;;16.00;70.50;;;;;;5115624;28;20221;-67
2023/11/15 05:53:27;;;;;;;1.60;1.00;;;16.00;70.50;;;;;;5097198;28;20170;-67
2023/11/15 05:55:53;;;;;;;2.33;1.25;;;16.00;70.50;;;;;;5115926;28;20221;-68
2023/11/15 05:58:18;;;;;;;2.53;1.10;;;16.00;70.50;;;;;;5097295;28;20256;-68
2023/11/15 06:00:44;;;;;;;2.35;1.00;;;16.00;70.50;;;;;;5115022;28;20192;-68
2023/11/15 06:03:10;;;;;;;1.67;1.15;;;16.00;70.50;;;;;;5115356;28;20639;-68
2023/11/15 06:05:35;;;;;;;1.42;1.15;;;16.00;70.60;;;;;;5115872;28;20179;-68
2023/11/15 06:08:01;;;;;;;4.55;1.10;;;16.00;70.50;;;;;;5114814;28;20169;-71
2023/11/15 06:10:27;;;;;;;1.02;0.85;;;16.00;70.60;;;;;;5115587;28;20292;-69
2023/11/15 06:12:55;;;;;;;2.72;1.00;;;16.00;70.60;;;;;;5115573;28;20267;-67
2023/11/15 06:15:21;;;;;;;2.60;0.88;;;16.00;70.60;;;;;;5114397;28;20181;-68
2023/11/15 06:17:46;;;;;;;2.35;1.17;;;16.00;70.60;;;;;;5115334;28;20177;-68
2023/11/15 06:20:13;;;;;;;1.58;1.00;;;16.00;70.60;;;;;;5114241;28;20218;-69
2023/11/15 06:22:39;;;;;;;1.17;0.63;;;16.00;70.60;;;;;;5115384;28;20188;-69
2023/11/15 06:25:06;;;;;;;2.33;1.10;;;16.00;70.70;;;;;;5115068;28;20173;-69
2023/11/15 06:27:33;;;;;;;2.92;1.20;;;16.00;70.60;;;;;;5114618;28;20170;-69
2023/11/15 06:29:59;;;;;;;1.88;1.17;;;16.00;70.60;;;;;;5114781;28;20242;-69
2023/11/15 06:32:24;;;;;;;2.28;1.00;;;15.90;70.60;;;;;;5115387;28;20177;-68
2023/11/15 06:34:50;;;;;;;2.25;1.02;;;16.00;70.60;;;;;;5114575;28;20177;-69
2023/11/15 06:37:16;;;;;;;2.03;1.23;;;15.90;70.60;;;;;;5114673;28;20240;-69
2023/11/15 06:39:42;;;;;;;1.60;1.02;;;16.00;70.60;;;;;;5114979;28;20177;-70
2023/11/15 06:42:07;;;;;;;1.73;0.80;;;15.90;70.60;;;;;;5113865;28;20256;-70
2023/11/15 06:44:33;;;;;;;2.38;1.27;;;15.90;70.60;;;;;;5114179;28;20173;-68
2023/11/15 06:47:00;;;;;;;3.33;1.35;;;15.90;70.80;;;;;;5114724;28;20207;-69
2023/11/15 06:49:27;;;;;;;1.45;1.02;;;15.90;70.70;;;;;;5113941;28;20788;-70
2023/11/15 06:51:52;;;;;;;3.03;1.20;;;15.90;70.60;;;;;;5114858;28;20180;-69
2023/11/15 06:54:18;;;;;;;2.75;1.10;;;15.90;70.60;;;;;;5114416;28;20173;-70
2023/11/15 06:56:44;;;;;;;1.85;1.15;;;15.90;70.60;;;;;;5113873;28;20169;-69
2023/11/15 06:59:10;;;;;;;1.83;1.20;;;15.90;70.70;;;;;;5114251;28;20165;-70
2023/11/15 07:01:36;;;;;;;3.50;1.33;;;15.90;70.60;;;;;;5114752;28;20180;-69
2023/11/15 07:04:02;;;;;;;2.38;1.10;;;15.90;70.60;;;;;;5113811;28;20172;-70
2023/11/15 07:06:27;;;;;;;1.13;0.73;;;15.90;70.70;;;;;;5114776;28;20514;-72
2023/11/15 07:08:53;;;;;;;3.72;1.50;;;15.90;70.60;;;;;;5114641;28;20180;-70
2023/11/15 07:11:19;;;;;;;2.95;1.10;;;15.90;70.50;;;;;;5113330;28;20243;-70
2023/11/15 07:13:48;;;;;;;4.18;1.33;;;16.00;70.40;;;;;;5114319;28;20623;-70
2023/11/15 07:16:13;;;;;;;2.45;1.40;;;16.00;70.50;;;;;;5114183;28;20181;-70
2023/11/15 07:18:39;;;;;;;2.95;1.08;;;16.10;70.60;;;;;;5113594;28;20169;-68
2023/11/15 07:21:05;;;;;;;1.48;1.10;;;16.20;70.50;;;;;;5113876;28;20176;-69
2023/11/15 07:23:33;;;;;;;4.57;1.02;;;16.20;70.30;;;;;;5095328;28;20173;-69
2023/11/15 07:25:58;;;;;;;1.77;0.98;;;16.30;70.20;;;;;;5113779;28;20265;-71
2023/11/15 07:28:24;;;;;;;1.98;1.10;;;16.40;70.00;;;;;;5114299;28;20255;-69
2023/11/15 07:30:50;;;;;;;2.28;1.17;;;16.50;69.80;;;;;;5113382;28;20217;-68
2023/11/15 07:33:19;;;;;;;2.20;1.17;;;16.60;69.70;;;;;;5113787;28;20227;-68
2023/11/15 07:35:46;;;;;;;2.15;0.95;;;16.70;69.90;;;;;;5113990;28;20173;-69
2023/11/15 07:38:12;;;;;;;2.03;0.85;;;16.70;69.30;;;;;;5112808;28;20757;-69
2023/11/15 07:40:37;;;;;;;1.73;0.95;;;16.80;69.10;;;;;;5113715;28;20272;-69
2023/11/15 07:43:05;;;;;;;1.67;0.95;;;16.90;69.80;;;;;;5113410;28;20201;-67
2023/11/15 07:45:35;;;;;;;3.30;1.30;;;16.90;68.90;;;;;;5112902;28;20662;-68
2023/11/15 07:48:10;;;;;;;2.13;0.88;;;17.00;68.70;;;;;;5113181;28;20619;-68
2023/11/15 07:50:35;;;;;;;2.15;1.20;;;17.00;68.60;;;;;;5113493;28;20694;-68
2023/11/15 07:53:01;;;;;;;1.40;0.75;;;17.10;68.60;;;;;;5112482;28;20174;-68
2023/11/15 07:55:27;;;;;;;2.50;1.10;;;17.20;68.50;;;;;;5112820;28;20177;-68
2023/11/15 07:57:52;;;;;;;1.75;0.75;;;17.20;68.10;;;;;;5113626;28;20490;-69
2023/11/15 08:00:22;;;;;;;2.13;0.95;;;17.30;68.10;;;;;;5112629;28;20192;-70
2023/11/15 08:02:52;;;;;;;2.17;1.00;;;17.30;67.80;;;;;;5113434;28;20169;-69
2023/11/15 08:05:21;;;;;;;1.70;1.13;;;17.40;67.60;;;;;;5113039;28;20263;-71
2023/11/15 08:07:47;;;;;;;1.85;0.80;;;17.30;67.50;;;;;;5112529;28;20188;-70
2023/11/15 08:10:14;;;;;;;2.25;0.98;;;17.30;67.70;;;;;;5113045;28;20655;-71
2023/11/15 08:12:43;;;;;;;1.63;0.85;;;17.20;67.80;;;;;;5112547;28;20180;-69
2023/11/15 08:15:15;;;;;;;2.15;0.65;;;17.20;68.00;;;;;;5112978;28;20177;-69
2023/11/15 08:17:45;;;;;;;1.58;0.80;;;17.10;68.00;;;;;;5113057;28;20181;-68
2023/11/15 08:20:11;;;;;;;0.90;0.60;;;17.10;68.10;;;;;;5112006;28;20263;-68
2023/11/15 08:22:37;;;;;;;1.02;0.70;;;17.00;68.30;;;;;;5113233;28;20271;-68
2023/11/15 08:25:08;;;;;;;0.85;0.77;;;17.00;68.30;;;;;;5112895;28;20169;-68
2023/11/15 08:27:35;;;;;;;1.50;0.98;;;16.90;68.60;;;;;;5112411;28;20176;-68
2023/11/15 08:30:03;;;;;;;1.17;0.70;;;16.80;68.60;;;;;;5112615;28;20216;-68
2023/11/15 08:32:29;;;;;;;1.83;0.93;;;16.80;68.70;;;;;;5112876;28;20200;-68
2023/11/15 08:34:55;;;;;;;2.63;1.20;;;16.80;68.80;;;;;;5112037;28;20623;-68
2023/11/15 08:37:20;;;;;;;2.78;1.20;;;16.70;69.00;;;;;;5112697;28;20174;-68
2023/11/15 08:39:46;;;;;;;1.20;0.90;;;16.70;69.00;;;;;;5112941;28;20572;-69
2023/11/15 08:42:12;;;;;;;2.72;0.80;;;16.70;69.10;;;;;;5111851;28;20172;-69
2023/11/15 08:44:41;;;;;;;3.70;1.30;;;16.70;69.30;;;;;;5112713;28;20553;-68
2023/11/15 08:47:07;;;;;;;2.25;1.20;;;16.60;69.20;;;;;;5112389;28;20246;-68
2023/11/15 08:49:32;;;;;;;0.77;0.75;;;16.60;69.40;;;;;;5111683;28;20683;-68
2023/11/15 08:51:58;;;;;;;1.50;0.90;;;16.60;69.40;;;;;;5112388;28;20181;-69
2023/11/15 08:54:23;;;;;;;2.55;0.90;;;16.60;69.50;;;;;;5112699;28;20165;-70
2023/11/15 08:56:50;;;;;;;1.33;0.88;;;16.70;69.40;;;;;;5111998;28;20173;-69
2023/11/15 08:59:15;;;;;;;1.98;1.08;;;16.70;69.40;;;;;;5112299;28;20181;-69
2023/11/15 09:01:41;;;;;;;2.72;1.10;;;16.80;69.30;;;;;;5112580;28;20169;-69
2023/11/15 09:04:07;;;;;;;1.63;0.90;;;16.80;69.00;;;;;;5111699;28;20295;-70
2023/11/15 09:06:34;;;;;;;2.80;0.95;;;16.80;68.90;;;;;;5114293;28;20202;-71
2023/11/15 09:09:01;;;;;;;3.20;1.20;;;16.90;69.00;;;;;;5115856;28;20678;-70
2023/11/15 09:11:28;;;;;;;1.95;1.10;;;16.80;69.00;;;;;;5116697;28;20301;-69
2023/11/15 09:13:54;;;;;;;3.13;1.00;;;16.80;69.10;;;;;;5116676;28;20226;-67
2023/11/15 09:16:21;;;;;;;1.27;1.10;;;16.80;69.30;;;;;;5115620;28;20172;-68
2023/11/15 09:18:48;;;;;;;2.22;0.80;;;16.70;69.30;;;;;;5116523;28;20168;-67
2023/11/15 09:21:14;;;;;;;2.03;1.17;;;16.70;69.40;;;;;;5116169;28;20169;-67
2023/11/15 09:23:41;;;;;;;3.63;1.00;;;16.70;69.30;;;;;;5115709;28;20192;-67
2023/11/15 09:26:12;;;;;;;2.78;1.00;;;16.80;69.30;;;;;;5116169;28;20173;-67
2023/11/15 09:28:38;;;;;;;2.92;1.20;;;16.80;69.30;;;;;;5116363;28;20659;-68
2023/11/15 09:31:05;;;;;;;2.67;1.20;;;16.80;69.30;;;;;;5115177;28;20256;-68
2023/11/15 09:33:35;;;;;;;2.70;1.30;;;16.80;69.30;;;;;;5098285;28;20173;-68
2023/11/15 09:36:01;;;;;;;2.75;1.00;;;16.80;69.50;;;;;;5116098;28;20234;-68
2023/11/15 09:38:27;;;;;;;1.50;1.08;;;16.80;69.60;;;;;;5115673;28;20173;-68
2023/11/15 09:40:52;;;;;;;2.53;1.00;;;16.70;69.70;;;;;;5116152;28;20177;-68
2023/11/15 09:43:19;;;;;;;2.95;1.00;;;16.70;69.80;;;;;;5115787;28;20175;-68
2023/11/15 09:45:46;;;;;;;2.28;0.90;;;16.70;69.80;;;;;;5115402;28;20212;-68
2023/11/15 09:48:12;;;;;;;1.60;1.13;;;16.70;69.80;;;;;;5097668;28;20228;-67
2023/11/15 09:50:38;;;;;;;1.95;0.90;;;16.70;69.80;;;;;;5098027;28;20217;-68
2023/11/15 09:53:05;;;;;;;1.48;1.00;;;16.70;69.80;;;;;;5114892;28;20165;-68
2023/11/15 09:55:31;;;;;;;1.48;1.00;;;16.60;69.80;;;;;;5097977;28;20181;-68
2023/11/15 09:57:57;;;;;;;2.88;1.00;;;16.60;69.80;;;;;;5115865;28;20196;-68
2023/11/15 10:00:22;;;;;;;1.65;1.00;;;16.60;69.70;;;;;;5114785;28;20211;-69
2023/11/15 10:02:52;;;;;;;3.47;1.15;;;16.60;70.00;;;;;;5115939;28;20169;-68
2023/11/15 10:05:26;;;;;;;1.48;1.15;;;16.60;70.10;;;;;;5114698;28;20931;-69
2023/11/15 10:08:11;;;;;;;1.73;1.05;;;16.60;70.20;;;;;;5115675;28;20176;-69
2023/11/15 10:10:39;;;;;;;2.22;1.15;;;16.60;70.10;;;;;;5115430;28;20208;-70
2023/11/15 10:13:16;;;;;;;2.42;1.30;;;16.60;69.80;;;;;;5114822;28;20173;-68
2023/11/15 10:15:43;;;;;;;1.67;1.20;;;16.60;69.70;;;;;;5115769;28;20256;-68
2023/11/15 10:18:29;;;;;;;2.53;1.27;;;16.60;69.70;;;;;;5114453;28;20314;-68
2023/11/15 10:21:15;;;;;;;3.05;1.10;;;16.60;69.80;;;;;;5114827;28;20173;-68
2023/11/15 10:23:41;;;;;;;3.08;1.23;;;16.60;70.00;;;;;;5115471;28;20169;-68
2023/11/15 10:26:10;;;;;;;2.15;0.95;;;16.60;70.00;;;;;;5115176;28;20185;-68
2023/11/15 10:28:43;;;;;;;2.13;1.08;;;16.60;70.10;;;;;;5114759;28;20169;-69
2023/11/15 10:31:14;;;;;;;2.45;1.13;;;16.50;70.10;;;;;;5114957;28;20223;-68
2023/11/15 10:33:45;;;;;;;3.25;1.15;;;16.60;70.20;;;;;;5114452;28;20208;-68
2023/11/15 10:36:18;;;;;;;3.38;1.33;;;16.60;70.10;;;;;;5115067;28;20201;-68
2023/11/15 10:38:55;;;;;;;3.10;0.90;;;16.60;70.10;;;;;;5115185;28;20181;-68
2023/11/15 10:41:25;;;;;;;1.83;1.10;;;16.60;70.20;;;;;;5113938;28;20208;-68
2023/11/15 10:43:52;;;;;;;2.78;1.30;;;16.60;70.20;;;;;;5114811;28;20229;-68
2023/11/15 10:46:22;;;;;;;2.45;1.10;;;16.50;70.10;;;;;;5114871;28;20335;-67
2023/11/15 10:48:49;;;;;;;1.63;0.98;;;16.50;70.10;;;;;;5095974;28;20260;-68
2023/11/15 10:51:20;;;;;;;3.63;1.00;;;16.50;70.10;;;;;;5096568;28;20576;-68
2023/11/15 10:53:46;;;;;;;1.85;1.17;;;16.50;70.20;;;;;;5096950;28;20252;-68
2023/11/15 10:56:14;;;;;;;2.20;0.98;;;16.50;70.20;;;;;;5113727;28;20960;-69
2023/11/15 10:58:39;;;;;;;1.80;1.08;;;16.50;70.10;;;;;;5096676;28;20226;-69
2023/11/15 11:01:06;;;;;;;2.08;1.00;;;16.50;70.00;;;;;;5096380;28;20584;-70
2023/11/15 11:03:32;;;;;;;1.98;0.90;;;16.50;70.00;;;;;;5095886;28;20181;-70
2023/11/15 11:06:03;;;;;;;3.10;1.10;;;16.50;70.00;;;;;;5096349;28;20241;-69
2023/11/15 11:08:54;;;;;;;1.30;1.10;;;16.50;70.00;;;;;;5094502;28;20268;-70
2023/11/15 11:11:22;;;;;;;2.85;1.10;;;16.50;70.10;;;;;;5114252;28;20213;-69
2023/11/15 11:14:13;;;;;;;1.77;0.93;;;16.50;70.10;;;;;;5096224;28;20539;-68
2023/11/15 11:16:40;;;;;;;2.70;1.00;;;16.50;70.20;;;;;;5113674;28;20562;-68
2023/11/15 11:19:21;;;;;;;1.15;1.05;;;16.50;70.10;;;;;;5114036;28;20174;-68
2023/11/15 11:22:02;;;;;;;1.77;1.08;;;16.50;70.00;;;;;;5114504;28;20197;-68
2023/11/15 11:24:34;;;;;;;1.55;0.93;;;16.60;70.00;;;;;;5113200;28;20184;-68
2023/11/15 11:27:13;;;;;;;1.70;1.00;;;16.60;69.70;;;;;;5113916;28;20181;-68
2023/11/15 11:29:56;;;;;;;2.47;1.27;;;16.60;69.80;;;;;;5112921;28;20689;-68
2023/11/15 11:32:31;;;;;;;2.03;1.20;;;16.60;69.80;;;;;;5113683;28;20181;-68
2023/11/15 11:35:06;;;;;;;3.72;1.30;;;16.60;69.80;;;;;;5114131;28;20559;-67
2023/11/15 11:37:47;;;;;;;2.45;1.00;;;16.50;70.00;;;;;;5113080;28;20180;-68
2023/11/15 11:40:17;;;;;;;2.97;1.20;;;16.50;69.70;;;;;;5113418;28;20256;-69
2023/11/15 11:42:44;;;;;;;2.58;1.00;;;16.60;69.70;;;;;;5114042;28;20208;-68
2023/11/15 11:45:12;;;;;;;3.38;1.20;;;16.60;69.80;;;;;;5112610;28;20633;-68
2023/11/15 11:47:41;;;;;;;1.33;0.95;;;16.60;69.70;;;;;;5113833;28;20531;-67
2023/11/15 11:50:07;;;;;;;2.78;1.05;;;16.60;70.00;;;;;;5113212;28;20225;-68
2023/11/15 11:52:36;;;;;;;1.73;1.30;;;16.60;69.70;;;;;;5112858;28;20173;-68
2023/11/15 11:55:03;;;;;;;1.92;1.15;;;16.60;69.80;;;;;;5113486;28;20177;-68
2023/11/15 11:57:29;;;;;;;2.08;1.00;;;16.60;69.80;;;;;;5113504;28;20577;-69
2023/11/15 12:00:01;;;;;;;2.10;0.90;;;16.60;69.70;;;;;;5112877;28;20200;-69
2023/11/15 12:02:36;;;;;;;1.70;1.27;;;16.70;69.70;;;;;;5113515;28;20173;-69
2023/11/15 12:05:03;;;;;;;2.67;0.93;;;16.60;69.60;;;;;;5112299;28;20165;-69
2023/11/15 12:07:29;;;;;;;1.95;1.23;;;16.60;69.70;;;;;;5113255;28;20702;-71
2023/11/15 12:10:03;;;;;;;1.63;0.95;;;16.60;69.70;;;;;;5095035;28;20209;-71
2023/11/15 12:12:29;;;;;;;3.33;1.25;;;16.60;69.90;;;;;;5112702;28;20226;-70
2023/11/15 12:14:59;;;;;;;2.17;1.15;;;16.50;70.10;;;;;;5113279;28;20726;-68
2023/11/15 12:17:41;;;;;;;3.35;0.98;;;16.50;70.10;;;;;;5113199;28;20196;-68
2023/11/15 12:20:10;;;;;;;3.65;1.60;;;16.60;70.00;;;;;;5112082;28;20183;-69
2023/11/15 12:22:43;;;;;;;3.38;1.20;;;16.50;70.00;;;;;;5113328;28;20188;-68
2023/11/15 12:25:13;;;;;;;1.63;0.93;;;16.50;70.00;;;;;;5095085;28;20173;-69
2023/11/15 12:27:39;;;;;;;3.17;1.20;;;16.50;70.10;;;;;;5112454;28;20200;-69
2023/11/15 12:30:07;;;;;;;1.73;1.08;;;16.50;70.10;;;;;;5112490;28;20209;-68
2023/11/15 12:32:37;;;;;;;2.85;1.00;;;16.50;70.20;;;;;;5094885;28;20551;-68
2023/11/15 12:35:06;;;;;;;2.53;1.10;;;16.50;70.20;;;;;;5112065;28;20599;-68
2023/11/15 12:37:35;;;;;;;2.53;1.10;;;16.40;70.20;;;;;;5094905;28;20222;-69
2023/11/15 12:40:16;;;;;;;2.35;1.10;;;16.40;70.10;;;;;;5094239;28;20169;-68
2023/11/15 12:42:43;;;;;;;1.83;1.00;;;16.50;70.10;;;;;;5112352;28;20176;-68
2023/11/15 12:45:26;;;;;;;1.83;1.00;;;16.50;70.00;;;;;;5112692;28;20189;-69
2023/11/15 12:48:08;;;;;;;1.45;1.13;;;16.60;69.70;;;;;;5111826;28;20587;-67
2023/11/15 12:50:36;;;;;;;1.75;0.90;;;16.60;69.70;;;;;;5112653;28;20239;-68